Eden Mills, Vermont
Current Conditions -  °F | °C
As of 12:54 PM on Thursday 29 Jan 2015 (Local Time) from KMVL Reporting Station
Clear Clear  
Wind Chill: -7°   Ceiling: Unl
Heat Index: -4°   Visibility: 10mi
Dew Point: -16°   Wind: 5mph
Humidity: 39%   Direction: 160°SSE
Pressure: 30.12"   Gusts: NA
Location:  44.71°N, 72.55°W
Report Text: KMVL 291754Z AUTO 16004KT 10SM CLR M04/M16 A3012 RMK AO2 PRESFR SLP217 T10391161 11039 21267 58048 TSNO
Loading
Personal Weather Stations






























Interactive Weather Map New forecast layout! Learn more

10-Day Weather Forecast

Advertisements
Track Severe Weather on mobile